Barbados Meteorological Services
Auto gathered TAF list
Powered by Apparatus software
For Flight BW225
Contact Number 1-(246)-535-0021/2/3/4/5/6
WEB: http://www.barbadosweather.org

**********************************************

2021/05/05 18:22
TAF TBPB 051700Z 0518/0618 09020KT 9999 SCT020= TAF TVSA 051700Z 0518/0618 07014KT 9999 SCT020


**********************************************
2021/05/05 18:00
TAF TAPA 051700Z 0518/0618 09011KT 9999 SCT020 PROB30
TEMPO 0518/0618 SHRA


**********************************************
2021/05/05 18:18
TAF LPPR 051700Z 0518/0618 33013KT 9999 FEW012
BECMG 0520/0523 VRB02KT SCT008 PROB30
TEMPO 0600/0607 5000 BR SCT002 BKN004
BECMG 0609/0611 30008KT SCT020


**********************************************
2021/05/05 18:18
TAF LPPD 051700Z 0518/0618 25008KT 9999 SCT015 SCT030
TEMPO 0518/0610 VRB05KT PROB30
TEMPO 0518/0618 SCT008 BKN012
BECMG 0610/0612 23010KT


**********************************************
2021/05/05 18:18
TAF LPLA 051701Z 0518/0618 22012KT 9999 FEW020 SCT030
TEMPO 0518/0521 21012G22KT PROB40
TEMPO 0521/0609 4000 -DZ BR SCT004 BKN007
TEMPO 0610/0618 22015G28KT


**********************************************
2021/05/05 18:18
TAF LPAZ 051700Z 0518/0624 27008KT 9999 FEW015 SCT030
TEMPO 0518/0609 VRB05KT PROB30
TEMPO 0518/0624 SCT008 BKN012
BECMG 0609/0612 22010KT


**********************************************
2021/05/05 18:30
TAF LEVT 051700Z 0518/0618 VRB03KT 9999 FEW020 TX20/0612Z TN06/0605Z
TEMPO 0518/0520 03010KT
TEMPO 0521/0607 3000 BR BKN010 PROB40
TEMPO 0600/0607 0800 BCFG BKN002 PROB40
TEMPO 0607/0610 22010KT
TEMPO 0612/0618 03012KT


**********************************************
2021/05/05 18:27
TAF LEMD 051700Z 0518/0624 VRB04KT CAVOK TX28/0615Z TN07/0606Z
BECMG 0611/0613 23010KT
BECMG 0617/0619 33005KT


**********************************************
2021/05/05 18:59
TAF COR ELLX 051700Z 0518/0624 23007KT 9999 SCT025
TEMPO 0518/0521 25017G35KT SHRA SCT020CB
TEMPO 0602/0607 BKN006
TEMPO 0612/0622 4500 RA BKN009 OVC015
BECMG 0622/0624 27010KT


**********************************************
2021/05/05 18:34
TAF
AMD EGPK 051829Z 0518/0618 01008KT 9999 FEW035
TEMPO 0518/0521 7000 -SHRA BKN014CB PROB30
TEMPO 0518/0520 4000 SHRAGS PROB30
TEMPO 0521/0524 BKN006
BECMG 0606/0609 31012KT PROB40
TEMPO 0608/0611 7000 -RA BKN008
TEMPO 0611/0618 6000 SHRA PROB40
TEMPO 0613/0618 32015G25KT


**********************************************
2021/05/05 18:10
TAF EGLL 051653Z 0518/0624 26005KT 9999 SCT030
TEMPO 0518/0520 7000 SHRA PROB30
TEMPO 0518/0519 4000 +TSRAGS BKN014CB PROB40 0603/0606 8000
TEMPO 0609/0618 7000 SHRA


**********************************************
2021/05/05 18:09
TAF EGKK 051653Z 0518/0624 29008KT 9999 SCT030 PROB40
TEMPO 0518/0520 4000 SHRAGS BKN014CB PROB40 0603/0606 6000
TEMPO 0610/0619 7000 SHRA


**********************************************
2021/05/05 18:09
TAF EGFF 051652Z 0518/0618 26015KT 9999 FEW030
TEMPO 0518/0524 6000 SHRA PROB30
TEMPO 0518/0520 4000 +SHRAGS BKN014CB
BECMG 0520/0523 VRB04KT
TEMPO 0603/0608 7000 SHRA BKN012 PROB30
TEMPO 0608/0615 9000 -SHRA
BECMG 0612/0615 30010KT


**********************************************
2021/05/05 18:09
TAF EGCC 051702Z 0518/0624 28012KT 9999 FEW048 PROB40
TEMPO 0518/0602 7000 SHRA
BECMG 0520/0523 VRB03KT
TEMPO 0521/0609 BKN012 PROB30
TEMPO 0602/0609 7000 -RA BKN004
BECMG 0609/0612 28010KT
TEMPO 0609/0622 7000 SHRA PROB30
TEMPO 0615/0618 29015G25KT 4000 +SHRAGS BKN008 BKN020CB


**********************************************
2021/05/05 18:27
TAF TAF EDDF 051700Z 0518/0624 21012KT 9999 SCT030 PROB40
TEMPO 0518/0602 23015G25KT SHRA BKN025CB
TEMPO 0609/0614 22015G25KT
BECMG 0612/0614 BKN030
TEMPO 0614/0624 RA
BECMG 0618/0620 28006KT


**********************************************
2021/05/05 18:34
TAF
AMD EBBR 051815Z 0518/0624 23007KT 9999 SCT025TCU
TEMPO 0518/0520 27018G30KT 4000 TSRA BKN020 SCT025CB


**********************************************